BAW864 EGLL-LHBP
Flight info
| Callsign | BAW864 |
|---|---|
| Flight time | N/A |
| Altitude | 35000 |
| Route | BPK Q295 BRAIN M197 REDFA L620 TACHA DCT OTMEC DCT NOMKA DCT OMELO DCT EVIKU DCT BNO DCT ODNEM DCT BERVA DCT NIT M748 ARFOX |
| Aircraft | A320/M-SDE3FGHIRWY/LB1 |
Departure
| Time | 2026-05-05 18:42 |
|---|---|
| Airport | London Heathrow Airport (EGLL) |
Arrival
| Time | N/A |
|---|---|
| Airport | Budapest Liszt Ferenc International Airport (LHBP) |
| Time | Latitude | Longitude | Altitude | Speed | Heading |
|---|---|---|---|---|---|
| 2026-05-05 18:06 | 51.46930 | -0.48787 | 86 ft | 0 kts | 360° |
| 2026-05-05 18:31 | 51.46919 | -0.48787 | 91 ft | 4 kts | 360° |
| 2026-05-05 18:31 | 51.46897 | -0.48787 | 88 ft | 3 kts | 360° |
| 2026-05-05 18:32 | 51.46878 | -0.48792 | 87 ft | 4 kts | 72° |
| 2026-05-05 18:32 | 51.46876 | -0.48795 | 87 ft | 4 kts | 90° |
| 2026-05-05 18:32 | 51.46876 | -0.48777 | 87 ft | 0 kts | 90° |
| 2026-05-05 18:35 | 51.46874 | -0.48768 | 87 ft | 2 kts | 108° |
| 2026-05-05 18:36 | 51.46862 | -0.48754 | 89 ft | 3 kts | 153° |
| 2026-05-05 18:36 | 51.46836 | -0.48749 | 87 ft | 5 kts | 178° |
| 2026-05-05 18:36 | 51.46829 | -0.48750 | 86 ft | 0 kts | 181° |
| 2026-05-05 18:36 | 51.46822 | -0.48750 | 86 ft | 2 kts | 181° |
| 2026-05-05 18:37 | 51.46802 | -0.48750 | 86 ft | 4 kts | 180° |
| 2026-05-05 18:37 | 51.46762 | -0.48750 | 86 ft | 8 kts | 179° |
| 2026-05-05 18:37 | 51.46698 | -0.48749 | 86 ft | 10 kts | 179° |
| 2026-05-05 18:37 | 51.46633 | -0.48752 | 86 ft | 8 kts | 188° |
| 2026-05-05 18:38 | 51.46609 | -0.48762 | 90 ft | 0 kts | 198° |
| 2026-05-05 18:40 | 51.46602 | -0.48766 | 90 ft | 2 kts | 198° |
| 2026-05-05 18:40 | 51.46551 | -0.48787 | 88 ft | 12 kts | 185° |
| 2026-05-05 18:41 | 51.46485 | -0.48720 | 89 ft | 13 kts | 115° |
| 2026-05-05 18:41 | 51.46478 | -0.48644 | 86 ft | 0 kts | 90° |
| 2026-05-05 18:41 | 51.46478 | -0.48642 | 86 ft | 1 kts | 90° |
| 2026-05-05 18:41 | 51.46479 | -0.48374 | 87 ft | 58 kts | 89° |
| 2026-05-05 18:42 | 51.46482 | -0.47385 | 87 ft | 116 kts | 90° |
| 2026-05-05 18:42 | 51.46490 | -0.45843 | 90 ft | 159 kts | 90° |
| 2026-05-05 18:42 | 51.46478 | -0.44028 | 624 ft | 160 kts | 87° |
| 2026-05-05 18:42 | 51.46515 | -0.42141 | 1012 ft | 178 kts | 79° |
| 2026-05-05 18:43 | 51.47081 | -0.40279 | 1277 ft | 199 kts | 49° |
| 2026-05-05 18:43 | 51.48034 | -0.38484 | 1566 ft | 224 kts | 49° |
| 2026-05-05 18:43 | 51.49096 | -0.36483 | 2033 ft | 244 kts | 49° |
| 2026-05-05 18:43 | 51.50211 | -0.34367 | 2845 ft | 250 kts | 49° |
| 2026-05-05 18:44 | 51.51342 | -0.32206 | 3757 ft | 253 kts | 49° |
| 2026-05-05 18:44 | 51.52487 | -0.30034 | 4675 ft | 256 kts | 48° |
| 2026-05-05 18:44 | 51.53644 | -0.27880 | 5533 ft | 260 kts | 48° |
| 2026-05-05 18:44 | 51.54859 | -0.25632 | 6398 ft | 265 kts | 47° |
| 2026-05-05 18:45 | 51.56064 | -0.23410 | 7147 ft | 269 kts | 47° |
| 2026-05-05 18:45 | 51.57308 | -0.21117 | 7926 ft | 274 kts | 47° |
| 2026-05-05 18:45 | 51.58670 | -0.18929 | 8751 ft | 278 kts | 35° |
| 2026-05-05 18:45 | 51.60364 | -0.17419 | 9504 ft | 281 kts | 18° |
| 2026-05-05 18:46 | 51.62256 | -0.16518 | 10231 ft | 284 kts | 14° |
| 2026-05-05 18:46 | 51.64202 | -0.15640 | 10505 ft | 306 kts | 14° |
| 2026-05-05 18:46 | 51.66343 | -0.14667 | 10662 ft | 329 kts | 14° |
| 2026-05-05 18:46 | 51.68619 | -0.13627 | 10794 ft | 350 kts | 15° |
| 2026-05-05 18:47 | 51.70908 | -0.12065 | 11181 ft | 363 kts | 30° |
| 2026-05-05 18:47 | 51.72922 | -0.09567 | 11746 ft | 369 kts | 44° |
| 2026-05-05 18:47 | 51.74503 | -0.06331 | 12328 ft | 375 kts | 58° |
| 2026-05-05 18:47 | 51.75565 | -0.02443 | 12929 ft | 380 kts | 73° |
| 2026-05-05 18:48 | 51.76042 | 0.01791 | 13523 ft | 383 kts | 81° |
| 2026-05-05 18:48 | 51.76393 | 0.06011 | 14124 ft | 385 kts | 82° |
| 2026-05-05 18:48 | 51.76740 | 0.10311 | 14683 ft | 388 kts | 82° |
| 2026-05-05 18:48 | 51.77086 | 0.14653 | 15223 ft | 390 kts | 82° |
| 2026-05-05 18:49 | 51.77437 | 0.19026 | 15767 ft | 393 kts | 82° |
| 2026-05-05 18:49 | 51.77793 | 0.23421 | 16304 ft | 395 kts | 82° |
| 2026-05-05 18:49 | 51.78153 | 0.27845 | 16838 ft | 398 kts | 82° |
| 2026-05-05 18:49 | 51.78512 | 0.32243 | 17371 ft | 401 kts | 82° |
| 2026-05-05 18:50 | 51.78874 | 0.36731 | 17918 ft | 403 kts | 82° |
| 2026-05-05 18:50 | 51.79235 | 0.41234 | 18426 ft | 406 kts | 82° |
| 2026-05-05 18:50 | 51.79597 | 0.45775 | 18879 ft | 409 kts | 82° |
| 2026-05-05 18:50 | 51.79961 | 0.50373 | 19335 ft | 413 kts | 82° |
| 2026-05-05 18:51 | 51.80321 | 0.54988 | 19810 ft | 415 kts | 82° |
| 2026-05-05 18:51 | 51.80682 | 0.59633 | 20260 ft | 418 kts | 82° |
| 2026-05-05 18:51 | 51.81051 | 0.64303 | 20627 ft | 423 kts | 81° |
| 2026-05-05 18:51 | 51.81691 | 0.68981 | 20962 ft | 427 kts | 76° |
| 2026-05-05 18:52 | 51.82416 | 0.73666 | 21377 ft | 430 kts | 76° |
| 2026-05-05 18:52 | 51.83146 | 0.78389 | 21762 ft | 434 kts | 76° |
| 2026-05-05 18:52 | 51.83875 | 0.83082 | 22166 ft | 436 kts | 75° |
| 2026-05-05 18:52 | 51.84676 | 0.87816 | 22539 ft | 439 kts | 74° |
| 2026-05-05 18:53 | 51.85544 | 0.92578 | 22928 ft | 441 kts | 73° |
| 2026-05-05 18:53 | 51.86447 | 0.97346 | 23309 ft | 444 kts | 72° |
| 2026-05-05 18:53 | 51.87362 | 1.02140 | 23735 ft | 444 kts | 73° |
| 2026-05-05 18:53 | 51.88263 | 1.06914 | 24084 ft | 445 kts | 73° |
| 2026-05-05 18:54 | 51.89155 | 1.11746 | 24388 ft | 448 kts | 74° |
| 2026-05-05 18:54 | 51.90032 | 1.16600 | 24692 ft | 451 kts | 75° |
| 2026-05-05 18:54 | 51.90906 | 1.21504 | 24978 ft | 453 kts | 74° |
| 2026-05-05 18:54 | 51.91770 | 1.26382 | 25294 ft | 456 kts | 75° |
| 2026-05-05 18:55 | 51.92645 | 1.31335 | 25582 ft | 458 kts | 75° |
| 2026-05-05 18:55 | 51.93523 | 1.36308 | 26017 ft | 457 kts | 75° |
| 2026-05-05 18:55 | 51.94403 | 1.41264 | 26461 ft | 456 kts | 75° |
| 2026-05-05 18:55 | 51.95281 | 1.46211 | 26911 ft | 456 kts | 75° |
| 2026-05-05 18:56 | 51.96158 | 1.51153 | 27352 ft | 455 kts | 76° |
| 2026-05-05 18:56 | 51.97023 | 1.56039 | 27824 ft | 454 kts | 76° |
| 2026-05-05 18:56 | 51.97886 | 1.60949 | 28283 ft | 453 kts | 76° |
| 2026-05-05 18:56 | 51.98745 | 1.65861 | 28759 ft | 452 kts | 76° |
| 2026-05-05 18:57 | 51.99594 | 1.70774 | 29222 ft | 451 kts | 77° |
| 2026-05-05 18:57 | 52.00387 | 1.75642 | 29679 ft | 450 kts | 78° |
| 2026-05-05 18:57 | 52.01146 | 1.80555 | 30116 ft | 449 kts | 78° |
| 2026-05-05 18:57 | 52.01885 | 1.85489 | 30518 ft | 448 kts | 79° |
| 2026-05-05 18:58 | 52.02620 | 1.90420 | 30935 ft | 447 kts | 79° |
| 2026-05-05 18:58 | 52.03350 | 1.95276 | 31324 ft | 447 kts | 78° |
| 2026-05-05 18:58 | 52.04098 | 2.00193 | 31679 ft | 447 kts | 79° |
| 2026-05-05 18:58 | 52.04853 | 2.05096 | 32100 ft | 446 kts | 79° |
| 2026-05-05 18:59 | 52.05609 | 2.09993 | 32535 ft | 445 kts | 79° |
| 2026-05-05 18:59 | 52.06359 | 2.14871 | 32974 ft | 444 kts | 79° |
| 2026-05-05 18:59 | 52.07103 | 2.19730 | 33411 ft | 442 kts | 79° |
| 2026-05-05 18:59 | 52.07843 | 2.24578 | 33851 ft | 441 kts | 79° |
| 2026-05-05 19:00 | 52.08576 | 2.29411 | 34213 ft | 440 kts | 79° |
| 2026-05-05 19:00 | 52.09302 | 2.34247 | 34513 ft | 439 kts | 79° |
| 2026-05-05 19:00 | 52.10022 | 2.39071 | 34797 ft | 440 kts | 79° |
| 2026-05-05 19:00 | 52.10747 | 2.43930 | 34922 ft | 442 kts | 79° |
| 2026-05-05 19:01 | 52.12283 | 2.53728 | 34948 ft | 457 kts | 77° |
| 2026-05-05 19:01 | 52.14194 | 2.63697 | 34945 ft | 463 kts | 75° |
| 2026-05-05 19:02 | 52.16185 | 2.73616 | 34950 ft | 463 kts | 75° |
| 2026-05-05 19:02 | 52.18120 | 2.83631 | 34948 ft | 463 kts | 76° |
| 2026-05-05 19:03 | 52.19998 | 2.93691 | 34948 ft | 463 kts | 76° |
| 2026-05-05 19:03 | 52.21847 | 3.03748 | 34950 ft | 462 kts | 76° |
| 2026-05-05 19:04 | 52.23687 | 3.13752 | 34960 ft | 462 kts | 76° |
| 2026-05-05 19:04 | 52.25177 | 3.23877 | 34949 ft | 457 kts | 88° |
| 2026-05-05 19:05 | 52.24989 | 3.34155 | 34937 ft | 451 kts | 100° |
| 2026-05-05 19:05 | 52.24340 | 3.44291 | 34934 ft | 452 kts | 99° |
| 2026-05-05 19:06 | 52.23699 | 3.54512 | 34926 ft | 452 kts | 99° |
| 2026-05-05 19:06 | 52.23045 | 3.64741 | 34926 ft | 453 kts | 99° |
| 2026-05-05 19:07 | 52.22491 | 3.73242 | 34922 ft | 453 kts | 99° |
| 2026-05-05 19:07 | 52.21705 | 3.85118 | 34935 ft | 453 kts | 99° |
| 2026-05-05 19:08 | 52.21131 | 3.93630 | 34934 ft | 452 kts | 99° |